sensor_id;sensor_type;location;lat;lon;timestamp;temperature;humidity
30399;DHT22;17195;50.838;7.214;2023-07-31T00:01:59;17.20;99.90
30399;DHT22;17195;50.838;7.214;2023-07-31T00:04:25;17.20;99.90
30399;DHT22;17195;50.838;7.214;2023-07-31T00:06:50;17.20;99.90
30399;DHT22;17195;50.838;7.214;2023-07-31T00:09:16;17.30;99.90
30399;DHT22;17195;50.838;7.214;2023-07-31T00:11:41;17.30;99.90
30399;DHT22;17195;50.838;7.214;2023-07-31T00:14:07;17.30;99.90
30399;DHT22;17195;50.838;7.214;2023-07-31T00:16:33;17.30;99.90
30399;DHT22;17195;50.838;7.214;2023-07-31T00:18:58;17.30;99.90
30399;DHT22;17195;50.838;7.214;2023-07-31T00:21:24;17.30;99.90
30399;DHT22;17195;50.838;7.214;2023-07-31T00:23:49;17.30;99.90
30399;DHT22;17195;50.838;7.214;2023-07-31T00:26:15;17.30;99.90
30399;DHT22;17195;50.838;7.214;2023-07-31T00:28:41;17.30;99.90
30399;DHT22;17195;50.838;7.214;2023-07-31T00:31:06;17.30;99.90
30399;DHT22;17195;50.838;7.214;2023-07-31T00:33:34;17.30;99.90
30399;DHT22;17195;50.838;7.214;2023-07-31T00:35:59;17.30;99.90
30399;DHT22;17195;50.838;7.214;2023-07-31T00:38:25;17.30;99.90
30399;DHT22;17195;50.838;7.214;2023-07-31T00:40:50;17.30;99.90
30399;DHT22;17195;50.838;7.214;2023-07-31T00:43:16;17.30;99.90
30399;DHT22;17195;50.838;7.214;2023-07-31T00:45:41;17.40;99.90
30399;DHT22;17195;50.838;7.214;2023-07-31T00:48:07;17.50;99.90
30399;DHT22;17195;50.838;7.214;2023-07-31T00:50:33;17.50;99.90
30399;DHT22;17195;50.838;7.214;2023-07-31T00:53:00;17.60;99.90
30399;DHT22;17195;50.838;7.214;2023-07-31T00:55:25;17.60;99.90
30399;DHT22;17195;50.838;7.214;2023-07-31T00:57:52;17.70;99.90
30399;DHT22;17195;50.838;7.214;2023-07-31T01:00:19;17.70;99.90
30399;DHT22;17195;50.838;7.214;2023-07-31T01:02:44;17.70;99.90
30399;DHT22;17195;50.838;7.214;2023-07-31T01:05:10;17.70;99.90
30399;DHT22;17195;50.838;7.214;2023-07-31T01:07:52;17.80;99.90
30399;DHT22;17195;50.838;7.214;2023-07-31T01:10:24;17.80;99.90
30399;DHT22;17195;50.838;7.214;2023-07-31T01:12:53;17.80;99.90
30399;DHT22;17195;50.838;7.214;2023-07-31T01:15:19;17.90;99.90
30399;DHT22;17195;50.838;7.214;2023-07-31T01:17:44;17.90;99.90
30399;DHT22;17195;50.838;7.214;2023-07-31T01:20:13;17.90;99.90
30399;DHT22;17195;50.838;7.214;2023-07-31T01:28:03;17.90;99.90
30399;DHT22;17195;50.838;7.214;2023-07-31T01:30:33;17.90;99.90
30399;DHT22;17195;50.838;7.214;2023-07-31T01:33:01;18.00;99.90
30399;DHT22;17195;50.838;7.214;2023-07-31T01:35:33;18.00;99.90
30399;DHT22;17195;50.838;7.214;2023-07-31T01:37:58;17.90;99.90
30399;DHT22;17195;50.838;7.214;2023-07-31T01:40:24;17.90;99.90
30399;DHT22;17195;50.838;7.214;2023-07-31T01:42:49;17.90;99.90
30399;DHT22;17195;50.838;7.214;2023-07-31T01:45:15;18.00;99.90
30399;DHT22;17195;50.838;7.214;2023-07-31T01:47:41;18.00;99.90
30399;DHT22;17195;50.838;7.214;2023-07-31T01:50:06;18.00;99.90
30399;DHT22;17195;50.838;7.214;2023-07-31T01:52:32;18.00;99.90
30399;DHT22;17195;50.838;7.214;2023-07-31T01:54:58;17.90;99.90
30399;DHT22;17195;50.838;7.214;2023-07-31T01:57:23;17.90;99.90
30399;DHT22;17195;50.838;7.214;2023-07-31T01:59:49;17.90;99.90
30399;DHT22;17195;50.838;7.214;2023-07-31T02:02:15;17.90;99.90
30399;DHT22;17195;50.838;7.214;2023-07-31T02:04:41;17.90;99.90
30399;DHT22;17195;50.838;7.214;2023-07-31T02:07:07;17.90;99.90
30399;DHT22;17195;50.838;7.214;2023-07-31T02:09:32;17.80;99.90
30399;DHT22;17195;50.838;7.214;2023-07-31T02:11:58;17.80;99.90
30399;DHT22;17195;50.838;7.214;2023-07-31T02:14:23;17.80;99.90
30399;DHT22;17195;50.838;7.214;2023-07-31T02:16:49;17.80;99.90
30399;DHT22;17195;50.838;7.214;2023-07-31T02:19:15;17.70;99.90
30399;DHT22;17195;50.838;7.214;2023-07-31T02:21:40;17.80;99.90
30399;DHT22;17195;50.838;7.214;2023-07-31T02:24:06;17.70;99.90
30399;DHT22;17195;50.838;7.214;2023-07-31T02:26:31;17.70;99.90
30399;DHT22;17195;50.838;7.214;2023-07-31T02:28:57;17.70;99.90
30399;DHT22;17195;50.838;7.214;2023-07-31T02:31:22;17.70;99.90
30399;DHT22;17195;50.838;7.214;2023-07-31T02:33:48;17.60;99.90
30399;DHT22;17195;50.838;7.214;2023-07-31T02:36:14;17.60;99.90
30399;DHT22;17195;50.838;7.214;2023-07-31T02:38:40;17.60;99.90
30399;DHT22;17195;50.838;7.214;2023-07-31T02:41:05;17.60;99.90
30399;DHT22;17195;50.838;7.214;2023-07-31T02:43:31;17.60;99.90
30399;DHT22;17195;50.838;7.214;2023-07-31T02:45:56;17.60;99.90
30399;DHT22;17195;50.838;7.214;2023-07-31T02:48:22;17.60;99.90
30399;DHT22;17195;50.838;7.214;2023-07-31T02:50:48;17.60;99.90
30399;DHT22;17195;50.838;7.214;2023-07-31T02:53:14;17.60;99.90
30399;DHT22;17195;50.838;7.214;2023-07-31T02:55:40;17.60;99.90
30399;DHT22;17195;50.838;7.214;2023-07-31T02:58:06;17.60;99.90
30399;DHT22;17195;50.838;7.214;2023-07-31T03:00:31;17.60;99.90
30399;DHT22;17195;50.838;7.214;2023-07-31T03:02:57;17.60;99.90
30399;DHT22;17195;50.838;7.214;2023-07-31T03:05:22;17.70;99.90
30399;DHT22;17195;50.838;7.214;2023-07-31T03:07:48;17.60;99.90
30399;DHT22;17195;50.838;7.214;2023-07-31T03:10:13;17.60;99.90
30399;DHT22;17195;50.838;7.214;2023-07-31T03:12:40;17.60;99.90
30399;DHT22;17195;50.838;7.214;2023-07-31T03:15:06;17.70;99.90
30399;DHT22;17195;50.838;7.214;2023-07-31T03:17:31;17.60;99.90
30399;DHT22;17195;50.838;7.214;2023-07-31T03:19:57;17.70;99.90
30399;DHT22;17195;50.838;7.214;2023-07-31T03:22:22;17.70;99.90
30399;DHT22;17195;50.838;7.214;2023-07-31T03:24:48;17.70;99.90
30399;DHT22;17195;50.838;7.214;2023-07-31T03:27:13;17.70;99.90
30399;DHT22;17195;50.838;7.214;2023-07-31T03:29:39;17.70;99.90
30399;DHT22;17195;50.838;7.214;2023-07-31T03:32:05;17.70;99.90
30399;DHT22;17195;50.838;7.214;2023-07-31T03:34:30;17.70;99.90
30399;DHT22;17195;50.838;7.214;2023-07-31T03:36:57;17.70;99.90
30399;DHT22;17195;50.838;7.214;2023-07-31T03:39:23;17.80;99.90
30399;DHT22;17195;50.838;7.214;2023-07-31T03:41:49;17.80;99.90
30399;DHT22;17195;50.838;7.214;2023-07-31T03:44:14;17.80;99.90
30399;DHT22;17195;50.838;7.214;2023-07-31T03:46:40;17.80;99.90
30399;DHT22;17195;50.838;7.214;2023-07-31T03:49:05;17.80;99.90
30399;DHT22;17195;50.838;7.214;2023-07-31T03:51:31;17.80;99.90
30399;DHT22;17195;50.838;7.214;2023-07-31T03:53:56;17.80;99.90
30399;DHT22;17195;50.838;7.214;2023-07-31T03:56:22;17.80;99.90
30399;DHT22;17195;50.838;7.214;2023-07-31T03:58:47;17.80;99.90
30399;DHT22;17195;50.838;7.214;2023-07-31T04:01:13;17.90;99.90
30399;DHT22;17195;50.838;7.214;2023-07-31T04:03:39;17.90;99.90
30399;DHT22;17195;50.838;7.214;2023-07-31T04:06:04;17.80;99.90
30399;DHT22;17195;50.838;7.214;2023-07-31T04:08:32;17.90;99.90
30399;DHT22;17195;50.838;7.214;2023-07-31T04:10:57;17.90;99.90
30399;DHT22;17195;50.838;7.214;2023-07-31T04:13:23;17.90;99.90
30399;DHT22;17195;50.838;7.214;2023-07-31T04:15:49;17.90;99.90
30399;DHT22;17195;50.838;7.214;2023-07-31T04:18:18;17.90;99.90
30399;DHT22;17195;50.838;7.214;2023-07-31T04:20:43;17.90;99.90
30399;DHT22;17195;50.838;7.214;2023-07-31T04:23:09;17.90;99.90
30399;DHT22;17195;50.838;7.214;2023-07-31T04:25:35;17.90;99.90
30399;DHT22;17195;50.838;7.214;2023-07-31T04:28:00;17.90;99.90
30399;DHT22;17195;50.838;7.214;2023-07-31T04:30:26;17.90;99.90
30399;DHT22;17195;50.838;7.214;2023-07-31T04:32:52;17.90;99.90
30399;DHT22;17195;50.838;7.214;2023-07-31T04:35:17;17.90;99.90
30399;DHT22;17195;50.838;7.214;2023-07-31T04:37:43;18.00;99.90
30399;DHT22;17195;50.838;7.214;2023-07-31T04:40:10;18.00;99.90
30399;DHT22;17195;50.838;7.214;2023-07-31T04:42:36;17.90;99.90
30399;DHT22;17195;50.838;7.214;2023-07-31T04:45:01;18.00;99.90
30399;DHT22;17195;50.838;7.214;2023-07-31T04:47:27;18.00;99.90
30399;DHT22;17195;50.838;7.214;2023-07-31T04:49:52;18.00;99.90
30399;DHT22;17195;50.838;7.214;2023-07-31T04:52:18;18.00;99.90
30399;DHT22;17195;50.838;7.214;2023-07-31T04:54:43;18.10;99.90
30399;DHT22;17195;50.838;7.214;2023-07-31T04:57:09;18.10;99.90
30399;DHT22;17195;50.838;7.214;2023-07-31T04:59:34;18.10;99.90
30399;DHT22;17195;50.838;7.214;2023-07-31T05:02:00;18.10;99.90
30399;DHT22;17195;50.838;7.214;2023-07-31T05:04:25;18.20;99.90
30399;DHT22;17195;50.838;7.214;2023-07-31T05:06:51;18.20;99.90
30399;DHT22;17195;50.838;7.214;2023-07-31T05:09:16;18.20;99.90
30399;DHT22;17195;50.838;7.214;2023-07-31T05:11:42;18.30;99.90
30399;DHT22;17195;50.838;7.214;2023-07-31T05:14:08;18.20;99.90
30399;DHT22;17195;50.838;7.214;2023-07-31T05:16:34;18.30;99.90
30399;DHT22;17195;50.838;7.214;2023-07-31T05:18:59;18.30;99.90
30399;DHT22;17195;50.838;7.214;2023-07-31T05:21:25;18.30;99.90
30399;DHT22;17195;50.838;7.214;2023-07-31T05:23:51;18.40;99.90
30399;DHT22;17195;50.838;7.214;2023-07-31T05:26:16;18.40;99.90
30399;DHT22;17195;50.838;7.214;2023-07-31T05:28:43;18.40;99.90
30399;DHT22;17195;50.838;7.214;2023-07-31T05:31:08;18.50;99.90
30399;DHT22;17195;50.838;7.214;2023-07-31T05:33:34;18.50;99.90
30399;DHT22;17195;50.838;7.214;2023-07-31T05:35:59;18.50;99.90
30399;DHT22;17195;50.838;7.214;2023-07-31T05:38:25;18.60;99.90
30399;DHT22;17195;50.838;7.214;2023-07-31T05:40:51;18.60;99.90
30399;DHT22;17195;50.838;7.214;2023-07-31T05:43:16;18.70;99.90
30399;DHT22;17195;50.838;7.214;2023-07-31T05:45:42;18.80;99.90
30399;DHT22;17195;50.838;7.214;2023-07-31T05:48:08;18.80;99.90
30399;DHT22;17195;50.838;7.214;2023-07-31T05:50:34;18.90;99.90
30399;DHT22;17195;50.838;7.214;2023-07-31T05:52:59;18.90;99.90
30399;DHT22;17195;50.838;7.214;2023-07-31T05:55:25;19.00;99.90
30399;DHT22;17195;50.838;7.214;2023-07-31T05:57:54;19.00;99.90
30399;DHT22;17195;50.838;7.214;2023-07-31T06:00:20;19.00;99.90
30399;DHT22;17195;50.838;7.214;2023-07-31T06:02:47;19.10;99.90
30399;DHT22;17195;50.838;7.214;2023-07-31T06:05:13;19.10;99.90
30399;DHT22;17195;50.838;7.214;2023-07-31T06:07:38;19.10;99.90
30399;DHT22;17195;50.838;7.214;2023-07-31T06:10:04;19.10;99.90
30399;DHT22;17195;50.838;7.214;2023-07-31T06:12:32;19.10;99.90
30399;DHT22;17195;50.838;7.214;2023-07-31T06:14:57;19.10;99.90
30399;DHT22;17195;50.838;7.214;2023-07-31T06:17:23;19.10;99.90
30399;DHT22;17195;50.838;7.214;2023-07-31T06:19:49;19.00;99.90
30399;DHT22;17195;50.838;7.214;2023-07-31T06:22:15;19.00;99.90
30399;DHT22;17195;50.838;7.214;2023-07-31T06:24:40;19.00;99.90
30399;DHT22;17195;50.838;7.214;2023-07-31T06:27:06;19.00;99.90
30399;DHT22;17195;50.838;7.214;2023-07-31T06:29:32;18.90;99.90
30399;DHT22;17195;50.838;7.214;2023-07-31T06:31:58;18.90;99.90
30399;DHT22;17195;50.838;7.214;2023-07-31T06:34:23;18.80;99.90
30399;DHT22;17195;50.838;7.214;2023-07-31T06:36:49;18.70;99.90
30399;DHT22;17195;50.838;7.214;2023-07-31T06:39:14;18.70;99.90
30399;DHT22;17195;50.838;7.214;2023-07-31T06:41:42;18.80;99.90
30399;DHT22;17195;50.838;7.214;2023-07-31T06:44:08;18.80;99.90
30399;DHT22;17195;50.838;7.214;2023-07-31T06:46:33;18.80;99.90
30399;DHT22;17195;50.838;7.214;2023-07-31T06:48:59;18.80;99.90
30399;DHT22;17195;50.838;7.214;2023-07-31T06:51:25;18.80;99.90
30399;DHT22;17195;50.838;7.214;2023-07-31T06:53:50;18.80;99.90
30399;DHT22;17195;50.838;7.214;2023-07-31T06:56:16;18.80;99.90
30399;DHT22;17195;50.838;7.214;2023-07-31T06:58:41;18.80;99.90
30399;DHT22;17195;50.838;7.214;2023-07-31T07:01:07;18.70;99.90
30399;DHT22;17195;50.838;7.214;2023-07-31T07:03:32;18.80;99.90
30399;DHT22;17195;50.838;7.214;2023-07-31T07:05:58;18.80;99.90
30399;DHT22;17195;50.838;7.214;2023-07-31T07:08:24;18.80;99.90
30399;DHT22;17195;50.838;7.214;2023-07-31T07:10:50;18.90;99.90
30399;DHT22;17195;50.838;7.214;2023-07-31T07:13:15;19.00;99.90
30399;DHT22;17195;50.838;7.214;2023-07-31T07:15:41;19.00;99.90
30399;DHT22;17195;50.838;7.214;2023-07-31T07:18:07;19.20;99.90
30399;DHT22;17195;50.838;7.214;2023-07-31T07:20:32;19.40;99.90
30399;DHT22;17195;50.838;7.214;2023-07-31T07:22:58;19.60;99.90
30399;DHT22;17195;50.838;7.214;2023-07-31T07:25:23;19.80;99.90
30399;DHT22;17195;50.838;7.214;2023-07-31T07:27:49;20.00;99.90
30399;DHT22;17195;50.838;7.214;2023-07-31T07:30:15;20.20;99.90
30399;DHT22;17195;50.838;7.214;2023-07-31T07:32:40;20.20;99.90
30399;DHT22;17195;50.838;7.214;2023-07-31T07:35:06;20.30;99.90
30399;DHT22;17195;50.838;7.214;2023-07-31T07:37:32;20.40;99.90
30399;DHT22;17195;50.838;7.214;2023-07-31T07:39:58;20.30;99.90
30399;DHT22;17195;50.838;7.214;2023-07-31T07:42:23;20.30;99.90
30399;DHT22;17195;50.838;7.214;2023-07-31T07:44:49;20.20;99.90
30399;DHT22;17195;50.838;7.214;2023-07-31T07:47:14;20.20;99.90
30399;DHT22;17195;50.838;7.214;2023-07-31T07:49:40;20.10;99.90
30399;DHT22;17195;50.838;7.214;2023-07-31T07:52:06;19.90;99.90
30399;DHT22;17195;50.838;7.214;2023-07-31T07:54:31;19.90;99.90
30399;DHT22;17195;50.838;7.214;2023-07-31T07:56:57;19.70;99.90
30399;DHT22;17195;50.838;7.214;2023-07-31T07:59:23;19.60;99.90
30399;DHT22;17195;50.838;7.214;2023-07-31T08:01:48;19.40;99.90
30399;DHT22;17195;50.838;7.214;2023-07-31T08:04:14;19.30;99.90
30399;DHT22;17195;50.838;7.214;2023-07-31T08:06:39;19.20;99.90
30399;DHT22;17195;50.838;7.214;2023-07-31T08:09:05;19.10;99.90
30399;DHT22;17195;50.838;7.214;2023-07-31T08:11:32;19.00;99.90
30399;DHT22;17195;50.838;7.214;2023-07-31T08:13:58;18.90;99.90
30399;DHT22;17195;50.838;7.214;2023-07-31T08:16:23;18.80;99.90
30399;DHT22;17195;50.838;7.214;2023-07-31T08:18:49;18.70;99.90
30399;DHT22;17195;50.838;7.214;2023-07-31T08:21:14;18.70;99.90
30399;DHT22;17195;50.838;7.214;2023-07-31T08:23:40;18.60;99.90
30399;DHT22;17195;50.838;7.214;2023-07-31T08:26:06;18.60;99.90
30399;DHT22;17195;50.838;7.214;2023-07-31T08:28:32;18.70;99.90
30399;DHT22;17195;50.838;7.214;2023-07-31T08:30:57;18.80;99.90
30399;DHT22;17195;50.838;7.214;2023-07-31T08:33:23;18.90;99.90
30399;DHT22;17195;50.838;7.214;2023-07-31T08:35:48;19.00;99.90
30399;DHT22;17195;50.838;7.214;2023-07-31T08:38:14;19.00;99.90
30399;DHT22;17195;50.838;7.214;2023-07-31T08:40:40;19.00;99.90
30399;DHT22;17195;50.838;7.214;2023-07-31T08:43:06;19.00;99.90
30399;DHT22;17195;50.838;7.214;2023-07-31T08:45:32;19.00;99.90
30399;DHT22;17195;50.838;7.214;2023-07-31T08:47:58;19.00;99.90
30399;DHT22;17195;50.838;7.214;2023-07-31T08:50:24;19.00;99.90
30399;DHT22;17195;50.838;7.214;2023-07-31T08:52:51;19.00;99.90
30399;DHT22;17195;50.838;7.214;2023-07-31T08:55:17;19.00;99.90
30399;DHT22;17195;50.838;7.214;2023-07-31T08:57:48;19.00;99.90
30399;DHT22;17195;50.838;7.214;2023-07-31T09:00:16;19.10;99.90
30399;DHT22;17195;50.838;7.214;2023-07-31T09:02:46;19.10;99.90
30399;DHT22;17195;50.838;7.214;2023-07-31T09:05:12;19.10;99.90
30399;DHT22;17195;50.838;7.214;2023-07-31T09:07:38;19.20;99.90
30399;DHT22;17195;50.838;7.214;2023-07-31T09:10:05;19.20;99.90
30399;DHT22;17195;50.838;7.214;2023-07-31T09:12:31;19.30;99.90
30399;DHT22;17195;50.838;7.214;2023-07-31T09:14:58;19.30;99.90
30399;DHT22;17195;50.838;7.214;2023-07-31T09:17:31;19.40;99.90
30399;DHT22;17195;50.838;7.214;2023-07-31T09:19:57;19.50;99.90
30399;DHT22;17195;50.838;7.214;2023-07-31T09:22:32;19.50;99.90
30399;DHT22;17195;50.838;7.214;2023-07-31T09:25:04;19.50;99.90
30399;DHT22;17195;50.838;7.214;2023-07-31T09:27:57;19.50;99.90
30399;DHT22;17195;50.838;7.214;2023-07-31T09:30:23;19.50;99.90
30399;DHT22;17195;50.838;7.214;2023-07-31T09:32:49;19.50;99.90
30399;DHT22;17195;50.838;7.214;2023-07-31T09:35:29;19.40;99.90
30399;DHT22;17195;50.838;7.214;2023-07-31T09:38:05;19.50;99.90
30399;DHT22;17195;50.838;7.214;2023-07-31T09:40:33;19.40;99.90
30399;DHT22;17195;50.838;7.214;2023-07-31T09:43:03;19.50;99.90
30399;DHT22;17195;50.838;7.214;2023-07-31T09:45:33;19.40;99.90
30399;DHT22;17195;50.838;7.214;2023-07-31T09:47:59;19.40;99.90
30399;DHT22;17195;50.838;7.214;2023-07-31T09:50:24;19.30;99.90
30399;DHT22;17195;50.838;7.214;2023-07-31T09:52:52;19.30;99.90
30399;DHT22;17195;50.838;7.214;2023-07-31T09:55:19;19.30;99.90
30399;DHT22;17195;50.838;7.214;2023-07-31T09:57:49;19.20;99.90
30399;DHT22;17195;50.838;7.214;2023-07-31T10:00:16;19.30;99.90
30399;DHT22;17195;50.838;7.214;2023-07-31T10:02:45;19.30;99.90
30399;DHT22;17195;50.838;7.214;2023-07-31T10:05:13;19.30;99.90
30399;DHT22;17195;50.838;7.214;2023-07-31T10:07:44;19.30;99.90
30399;DHT22;17195;50.838;7.214;2023-07-31T10:10:11;19.20;99.90
30399;DHT22;17195;50.838;7.214;2023-07-31T10:12:38;19.20;99.90
30399;DHT22;17195;50.838;7.214;2023-07-31T10:15:04;19.30;99.90
30399;DHT22;17195;50.838;7.214;2023-07-31T10:17:30;19.20;99.90
30399;DHT22;17195;50.838;7.214;2023-07-31T10:19:58;19.30;99.90
30399;DHT22;17195;50.838;7.214;2023-07-31T10:22:26;19.30;99.90
30399;DHT22;17195;50.838;7.214;2023-07-31T10:24:54;19.30;99.90
30399;DHT22;17195;50.838;7.214;2023-07-31T10:27:20;19.40;99.90
30399;DHT22;17195;50.838;7.214;2023-07-31T10:29:47;19.50;99.90
30399;DHT22;17195;50.838;7.214;2023-07-31T10:32:15;19.60;99.90
30399;DHT22;17195;50.838;7.214;2023-07-31T10:34:41;19.70;99.90
30399;DHT22;17195;50.838;7.214;2023-07-31T10:37:24;19.90;99.90
30399;DHT22;17195;50.838;7.214;2023-07-31T10:42:52;20.30;99.90
30399;DHT22;17195;50.838;7.214;2023-07-31T10:45:25;20.50;99.90
30399;DHT22;17195;50.838;7.214;2023-07-31T10:48:04;20.60;99.90
30399;DHT22;17195;50.838;7.214;2023-07-31T10:50:32;20.70;99.90
30399;DHT22;17195;50.838;7.214;2023-07-31T10:53:01;20.60;99.90
30399;DHT22;17195;50.838;7.214;2023-07-31T10:55:33;20.60;99.90
30399;DHT22;17195;50.838;7.214;2023-07-31T10:58:08;20.50;99.90
30399;DHT22;17195;50.838;7.214;2023-07-31T11:00:41;20.40;99.90
30399;DHT22;17195;50.838;7.214;2023-07-31T11:03:09;20.30;99.90
30399;DHT22;17195;50.838;7.214;2023-07-31T11:08:34;20.10;99.90
30399;DHT22;17195;50.838;7.214;2023-07-31T11:13:30;20.10;99.90
30399;DHT22;17195;50.838;7.214;2023-07-31T11:15:55;20.10;99.90
30399;DHT22;17195;50.838;7.214;2023-07-31T11:18:21;20.10;99.90
30399;DHT22;17195;50.838;7.214;2023-07-31T11:20:47;20.10;99.90
30399;DHT22;17195;50.838;7.214;2023-07-31T11:23:16;20.10;99.90
30399;DHT22;17195;50.838;7.214;2023-07-31T11:25:42;20.00;99.90
30399;DHT22;17195;50.838;7.214;2023-07-31T11:28:15;20.10;99.90
30399;DHT22;17195;50.838;7.214;2023-07-31T11:30:42;20.00;99.90
30399;DHT22;17195;50.838;7.214;2023-07-31T11:33:09;20.20;99.90
30399;DHT22;17195;50.838;7.214;2023-07-31T11:38:09;20.20;99.90
30399;DHT22;17195;50.838;7.214;2023-07-31T11:40:44;20.10;99.90
30399;DHT22;17195;50.838;7.214;2023-07-31T11:43:10;20.00;99.90
30399;DHT22;17195;50.838;7.214;2023-07-31T11:45:41;20.00;99.90
30399;DHT22;17195;50.838;7.214;2023-07-31T11:48:07;19.90;99.90
30399;DHT22;17195;50.838;7.214;2023-07-31T11:50:34;19.70;99.90
30399;DHT22;17195;50.838;7.214;2023-07-31T11:53:06;19.70;99.90
30399;DHT22;17195;50.838;7.214;2023-07-31T11:55:33;19.80;99.90
30399;DHT22;17195;50.838;7.214;2023-07-31T11:57:59;19.80;99.90
30399;DHT22;17195;50.838;7.214;2023-07-31T12:00:25;20.10;99.90
30399;DHT22;17195;50.838;7.214;2023-07-31T12:02:51;20.20;99.90
30399;DHT22;17195;50.838;7.214;2023-07-31T12:05:18;20.50;99.90
30399;DHT22;17195;50.838;7.214;2023-07-31T12:10:11;21.00;99.90
30399;DHT22;17195;50.838;7.214;2023-07-31T12:12:36;21.30;99.90
30399;DHT22;17195;50.838;7.214;2023-07-31T12:15:02;21.50;99.90
30399;DHT22;17195;50.838;7.214;2023-07-31T12:17:28;21.80;99.90
30399;DHT22;17195;50.838;7.214;2023-07-31T12:19:53;22.00;99.90
30399;DHT22;17195;50.838;7.214;2023-07-31T12:22:20;22.10;99.90
30399;DHT22;17195;50.838;7.214;2023-07-31T12:24:46;22.10;99.90
30399;DHT22;17195;50.838;7.214;2023-07-31T12:27:13;22.00;99.90
30399;DHT22;17195;50.838;7.214;2023-07-31T12:29:39;21.80;99.90
30399;DHT22;17195;50.838;7.214;2023-07-31T12:32:24;21.70;99.90
30399;DHT22;17195;50.838;7.214;2023-07-31T12:34:51;21.60;99.90
30399;DHT22;17195;50.838;7.214;2023-07-31T12:37:17;21.60;99.90
30399;DHT22;17195;50.838;7.214;2023-07-31T12:39:43;21.50;99.90
30399;DHT22;17195;50.838;7.214;2023-07-31T12:42:08;21.30;99.90
30399;DHT22;17195;50.838;7.214;2023-07-31T12:44:34;21.20;99.90
30399;DHT22;17195;50.838;7.214;2023-07-31T12:46:59;21.10;99.90
30399;DHT22;17195;50.838;7.214;2023-07-31T12:49:25;21.10;99.90
30399;DHT22;17195;50.838;7.214;2023-07-31T12:51:50;21.00;99.90
30399;DHT22;17195;50.838;7.214;2023-07-31T12:54:16;21.00;99.90
30399;DHT22;17195;50.838;7.214;2023-07-31T12:56:41;21.00;99.90
30399;DHT22;17195;50.838;7.214;2023-07-31T12:59:07;20.90;99.90
30399;DHT22;17195;50.838;7.214;2023-07-31T13:01:33;20.90;99.90
30399;DHT22;17195;50.838;7.214;2023-07-31T13:03:58;20.90;99.90
30399;DHT22;17195;50.838;7.214;2023-07-31T13:06:25;20.80;99.90
30399;DHT22;17195;50.838;7.214;2023-07-31T13:08:51;20.80;99.90
30399;DHT22;17195;50.838;7.214;2023-07-31T13:11:17;20.90;99.90
30399;DHT22;17195;50.838;7.214;2023-07-31T13:13:42;20.90;99.90
30399;DHT22;17195;50.838;7.214;2023-07-31T13:16:08;20.90;99.90
30399;DHT22;17195;50.838;7.214;2023-07-31T13:18:33;21.10;99.90
30399;DHT22;17195;50.838;7.214;2023-07-31T13:20:59;21.30;99.90
30399;DHT22;17195;50.838;7.214;2023-07-31T13:23:24;21.40;99.90
30399;DHT22;17195;50.838;7.214;2023-07-31T13:25:50;21.50;99.90
30399;DHT22;17195;50.838;7.214;2023-07-31T13:28:15;21.60;99.90
30399;DHT22;17195;50.838;7.214;2023-07-31T13:30:41;21.60;99.90
30399;DHT22;17195;50.838;7.214;2023-07-31T13:33:07;21.70;99.90
30399;DHT22;17195;50.838;7.214;2023-07-31T13:35:32;21.60;99.90
30399;DHT22;17195;50.838;7.214;2023-07-31T13:37:58;21.60;99.90
30399;DHT22;17195;50.838;7.214;2023-07-31T13:40:23;21.60;99.90
30399;DHT22;17195;50.838;7.214;2023-07-31T13:42:49;21.60;99.90
30399;DHT22;17195;50.838;7.214;2023-07-31T13:45:15;21.60;99.90
30399;DHT22;17195;50.838;7.214;2023-07-31T13:47:40;21.60;99.90
30399;DHT22;17195;50.838;7.214;2023-07-31T13:50:06;21.70;99.90
30399;DHT22;17195;50.838;7.214;2023-07-31T13:52:32;21.90;99.90
30399;DHT22;17195;50.838;7.214;2023-07-31T13:54:57;22.10;99.90
30399;DHT22;17195;50.838;7.214;2023-07-31T13:57:23;22.30;99.90
30399;DHT22;17195;50.838;7.214;2023-07-31T13:59:48;22.50;99.90
30399;DHT22;17195;50.838;7.214;2023-07-31T14:02:14;22.80;99.90
30399;DHT22;17195;50.838;7.214;2023-07-31T14:04:40;23.00;99.90
30399;DHT22;17195;50.838;7.214;2023-07-31T14:07:06;23.00;99.90
30399;DHT22;17195;50.838;7.214;2023-07-31T14:09:32;23.20;99.90
30399;DHT22;17195;50.838;7.214;2023-07-31T14:11:57;23.10;99.90
30399;DHT22;17195;50.838;7.214;2023-07-31T14:14:23;23.10;99.90
30399;DHT22;17195;50.838;7.214;2023-07-31T14:16:48;23.10;99.90
30399;DHT22;17195;50.838;7.214;2023-07-31T14:19:14;23.20;99.90
30399;DHT22;17195;50.838;7.214;2023-07-31T14:21:39;23.30;99.90
30399;DHT22;17195;50.838;7.214;2023-07-31T14:24:05;23.00;99.90
30399;DHT22;17195;50.838;7.214;2023-07-31T14:26:31;22.80;99.90
30399;DHT22;17195;50.838;7.214;2023-07-31T14:28:56;22.40;99.90
30399;DHT22;17195;50.838;7.214;2023-07-31T14:31:22;22.10;99.90
30399;DHT22;17195;50.838;7.214;2023-07-31T14:33:48;22.00;99.90
30399;DHT22;17195;50.838;7.214;2023-07-31T14:36:13;21.90;99.90
30399;DHT22;17195;50.838;7.214;2023-07-31T14:38:39;21.80;99.90
30399;DHT22;17195;50.838;7.214;2023-07-31T14:41:04;21.80;99.90
30399;DHT22;17195;50.838;7.214;2023-07-31T14:43:30;21.60;99.90
30399;DHT22;17195;50.838;7.214;2023-07-31T14:45:55;21.60;99.90
30399;DHT22;17195;50.838;7.214;2023-07-31T14:48:24;21.60;99.90
30399;DHT22;17195;50.838;7.214;2023-07-31T14:50:50;21.60;99.90
30399;DHT22;17195;50.838;7.214;2023-07-31T14:53:15;21.40;99.90
30399;DHT22;17195;50.838;7.214;2023-07-31T14:55:41;21.30;99.90
30399;DHT22;17195;50.838;7.214;2023-07-31T14:58:06;21.20;99.90
30399;DHT22;17195;50.838;7.214;2023-07-31T15:00:32;21.10;99.90
30399;DHT22;17195;50.838;7.214;2023-07-31T15:02:58;20.90;99.90
30399;DHT22;17195;50.838;7.214;2023-07-31T15:05:23;21.00;99.90
30399;DHT22;17195;50.838;7.214;2023-07-31T15:07:49;21.00;99.90
30399;DHT22;17195;50.838;7.214;2023-07-31T15:10:14;21.00;99.90
30399;DHT22;17195;50.838;7.214;2023-07-31T15:12:41;20.90;99.90
30399;DHT22;17195;50.838;7.214;2023-07-31T15:15:07;20.90;99.90
30399;DHT22;17195;50.838;7.214;2023-07-31T15:17:33;20.80;99.90
30399;DHT22;17195;50.838;7.214;2023-07-31T15:19:59;20.80;99.90
30399;DHT22;17195;50.838;7.214;2023-07-31T15:22:25;20.80;99.90
30399;DHT22;17195;50.838;7.214;2023-07-31T15:24:51;20.80;99.90
30399;DHT22;17195;50.838;7.214;2023-07-31T15:27:17;20.70;99.90
30399;DHT22;17195;50.838;7.214;2023-07-31T15:29:42;20.80;99.90
30399;DHT22;17195;50.838;7.214;2023-07-31T15:32:08;20.80;99.90
30399;DHT22;17195;50.838;7.214;2023-07-31T15:34:34;20.80;99.90
30399;DHT22;17195;50.838;7.214;2023-07-31T15:36:59;20.80;99.90
30399;DHT22;17195;50.838;7.214;2023-07-31T15:39:25;20.80;99.90
30399;DHT22;17195;50.838;7.214;2023-07-31T15:41:51;20.80;99.90
30399;DHT22;17195;50.838;7.214;2023-07-31T15:44:16;20.80;99.90